Time;durP1;ratioP1;P1;durP2;ratioP2;P2;SDS_P1;SDS_P2;PMS_P1;PMS_P2;Temp;Humidity;BMP_temperature;BMP_pressure;BME280_temperature;BME280_humidity;BME280_pressure;Samples;Min_cycle;Max_cycle;Signal;HPM_P1;HPM_P2
2021/08/06 00:01:15;;;;;;;2.20;0.40;;;;;;;;;;4992779;28;20462;-65
2021/08/06 00:03:41;;;;;;;2.30;0.50;;;;;;;;;;4992563;28;20477;-64
2021/08/06 00:06:07;;;;;;;2.67;0.40;;;;;;;;;;4992640;28;20428;-64
2021/08/06 00:08:34;;;;;;;2.90;0.40;;;;;;;;;;4992445;28;20422;-64
2021/08/06 00:11:00;;;;;;;3.23;0.40;;;;;;;;;;4992451;28;20428;-66
2021/08/06 00:13:26;;;;;;;3.70;0.40;;;;;;;;;;4998066;28;20494;-64
2021/08/06 00:15:52;;;;;;;3.80;0.40;;;;;;;;;;5011837;28;20470;-66
2021/08/06 00:18:19;;;;;;;3.80;0.40;;;;;;;;;;4999850;28;20488;-66
2021/08/06 00:20:45;;;;;;;3.80;0.40;;;;;;;;;;4992616;28;20440;-66
2021/08/06 00:23:11;;;;;;;3.80;0.40;;;;;;;;;;4992128;28;22404;-65
2021/08/06 00:25:37;;;;;;;3.90;0.40;;;;;;;;;;4992176;28;20856;-64
2021/08/06 00:28:04;;;;;;;3.83;0.40;;;;;;;;;;4992307;28;20786;-64
2021/08/06 00:30:30;;;;;;;3.80;0.40;;;;;;;;;;4991897;28;20428;-60
2021/08/06 00:32:57;;;;;;;4.80;0.40;;;;;;;;;;4992448;28;20460;-64
2021/08/06 00:35:23;;;;;;;5.00;0.50;;;;;;;;;;4992481;28;20380;-63
2021/08/06 00:37:49;;;;;;;4.87;0.50;;;;;;;;;;4992029;28;20479;-64
2021/08/06 00:40:15;;;;;;;4.80;0.40;;;;;;;;;;4992182;28;20389;-64
2021/08/06 00:42:41;;;;;;;4.87;0.40;;;;;;;;;;4991938;28;20448;-64
2021/08/06 00:45:08;;;;;;;4.90;0.40;;;;;;;;;;4992152;28;20501;-66
2021/08/06 00:47:34;;;;;;;4.90;0.40;;;;;;;;;;4992028;28;20891;-64
2021/08/06 00:50:01;;;;;;;4.95;0.40;;;;;;;;;;4991900;28;20576;-64
2021/08/06 00:52:27;;;;;;;5.00;0.40;;;;;;;;;;4992080;28;20547;-63
2021/08/06 00:54:54;;;;;;;5.00;0.40;;;;;;;;;;4991909;28;20492;-62
2021/08/06 00:57:20;;;;;;;5.07;0.40;;;;;;;;;;4992315;28;20399;-64
2021/08/06 00:59:46;;;;;;;5.07;0.40;;;;;;;;;;4991620;28;20429;-63
2021/08/06 01:02:18;;;;;;;5.07;0.40;;;;;;;;;;4991235;28;20425;-65
2021/08/06 01:05:02;;;;;;;4.93;0.50;;;;;;;;;;4992163;28;20465;-64
2021/08/06 01:07:47;;;;;;;5.00;0.50;;;;;;;;;;4991967;28;20426;-67
2021/08/06 01:10:13;;;;;;;5.03;0.40;;;;;;;;;;4991619;28;20475;-65
2021/08/06 01:12:49;;;;;;;4.90;0.40;;;;;;;;;;4991711;28;20429;-65
2021/08/06 01:15:16;;;;;;;4.40;0.40;;;;;;;;;;4987724;28;20429;-66
2021/08/06 01:17:44;;;;;;;4.30;0.40;;;;;;;;;;4992005;28;20452;-65
2021/08/06 01:20:13;;;;;;;4.30;0.40;;;;;;;;;;4993542;28;20449;-64
2021/08/06 01:22:40;;;;;;;4.37;0.40;;;;;;;;;;4994880;28;20998;-63
2021/08/06 01:25:15;;;;;;;4.40;0.50;;;;;;;;;;4992175;28;20511;-64
2021/08/06 01:27:42;;;;;;;4.40;0.50;;;;;;;;;;4991902;28;20182;-65
2021/08/06 01:30:09;;;;;;;4.40;0.40;;;;;;;;;;4985449;28;20465;-65
2021/08/06 01:32:35;;;;;;;4.40;0.40;;;;;;;;;;4995630;28;20424;-63
2021/08/06 01:35:01;;;;;;;4.43;0.40;;;;;;;;;;4995590;28;20405;-64
2021/08/06 01:37:27;;;;;;;4.50;0.40;;;;;;;;;;4995383;28;20361;-66
2021/08/06 01:39:54;;;;;;;4.47;0.40;;;;;;;;;;4995027;28;20427;-64
2021/08/06 01:42:32;;;;;;;4.50;0.50;;;;;;;;;;4995695;28;20412;-64
2021/08/06 01:44:58;;;;;;;4.40;0.40;;;;;;;;;;4995572;28;20461;-65
2021/08/06 01:47:31;;;;;;;4.40;0.50;;;;;;;;;;4995303;28;20482;-64
2021/08/06 01:49:59;;;;;;;4.27;0.50;;;;;;;;;;4995273;28;20425;-64
2021/08/06 01:52:27;;;;;;;4.30;0.40;;;;;;;;;;4995164;28;20392;-64
2021/08/06 01:54:54;;;;;;;2.33;0.40;;;;;;;;;;4995286;28;20430;-62
2021/08/06 01:57:22;;;;;;;2.60;0.40;;;;;;;;;;4995264;28;20512;-65
2021/08/06 01:59:49;;;;;;;2.40;0.40;;;;;;;;;;4993446;28;20475;-64
2021/08/06 02:02:15;;;;;;;2.53;0.40;;;;;;;;;;4982280;28;20770;-66
2021/08/06 02:04:41;;;;;;;2.60;0.40;;;;;;;;;;4995031;28;20975;-65
2021/08/06 02:07:08;;;;;;;2.77;0.40;;;;;;;;;;4995240;28;20433;-63
2021/08/06 02:09:38;;;;;;;2.80;0.40;;;;;;;;;;4995218;28;20767;-64
2021/08/06 02:12:04;;;;;;;2.80;0.40;;;;;;;;;;4995854;28;20174;-63
2021/08/06 02:14:30;;;;;;;3.07;0.50;;;;;;;;;;4994864;28;20813;-65
2021/08/06 02:16:56;;;;;;;3.30;0.40;;;;;;;;;;4995454;28;20420;-65
2021/08/06 02:19:23;;;;;;;3.40;0.40;;;;;;;;;;4994489;28;20426;-63
2021/08/06 02:21:51;;;;;;;3.93;0.50;;;;;;;;;;4995264;28;20773;-64
2021/08/06 02:24:17;;;;;;;3.97;0.40;;;;;;;;;;4994566;28;20434;-63
2021/08/06 02:26:45;;;;;;;4.33;0.40;;;;;;;;;;5009405;28;20430;-64
2021/08/06 02:29:17;;;;;;;4.30;0.40;;;;;;;;;;4996667;28;20432;-64
2021/08/06 02:31:44;;;;;;;4.30;0.40;;;;;;;;;;4999241;28;21036;-63
2021/08/06 02:34:11;;;;;;;4.33;0.40;;;;;;;;;;4994553;28;20472;-64
2021/08/06 02:36:37;;;;;;;4.40;0.50;;;;;;;;;;4994642;28;20453;-63
2021/08/06 02:39:05;;;;;;;4.30;0.50;;;;;;;;;;4993390;28;20941;-64
2021/08/06 02:41:31;;;;;;;4.23;0.40;;;;;;;;;;4994395;28;20436;-64
2021/08/06 02:43:56;;;;;;;4.20;0.40;;;;;;;;;;4994123;28;20457;-63
2021/08/06 02:46:22;;;;;;;4.93;0.50;;;;;;;;;;4994433;28;20790;-64
2021/08/06 02:48:48;;;;;;;5.83;0.50;;;;;;;;;;4993804;28;20512;-64
2021/08/06 02:51:14;;;;;;;6.60;0.50;;;;;;;;;;4994158;28;20521;-62
2021/08/06 02:53:40;;;;;;;6.87;0.50;;;;;;;;;;4993910;28;20998;-64
2021/08/06 02:56:06;;;;;;;6.93;0.50;;;;;;;;;;4994511;28;20468;-65
2021/08/06 02:58:32;;;;;;;6.87;0.50;;;;;;;;;;4993627;28;20438;-65
2021/08/06 03:00:58;;;;;;;6.90;0.50;;;;;;;;;;4976818;28;20426;-64
2021/08/06 03:03:24;;;;;;;6.93;0.50;;;;;;;;;;4993817;28;20550;-64
2021/08/06 03:05:51;;;;;;;6.90;0.50;;;;;;;;;;4993907;28;20824;-63
2021/08/06 03:08:17;;;;;;;6.90;0.50;;;;;;;;;;4993746;28;20461;-61
2021/08/06 03:10:43;;;;;;;6.90;0.50;;;;;;;;;;4993724;28;20499;-64
2021/08/06 03:13:09;;;;;;;6.90;0.50;;;;;;;;;;4993406;28;20521;-64
2021/08/06 03:15:35;;;;;;;6.80;0.50;;;;;;;;;;4994092;28;20413;-63
2021/08/06 03:18:01;;;;;;;7.20;0.50;;;;;;;;;;4993648;28;20449;-65
2021/08/06 03:20:28;;;;;;;7.20;0.40;;;;;;;;;;4993584;28;20417;-63
2021/08/06 03:22:54;;;;;;;7.10;0.50;;;;;;;;;;4993554;28;20469;-64
2021/08/06 03:25:20;;;;;;;6.90;0.40;;;;;;;;;;4993576;28;20202;-63
2021/08/06 03:27:46;;;;;;;6.50;0.50;;;;;;;;;;4993725;28;20421;-64
2021/08/06 03:30:13;;;;;;;7.40;0.50;;;;;;;;;;5006107;28;20421;-65
2021/08/06 03:32:39;;;;;;;6.97;0.50;;;;;;;;;;5013378;28;20884;-65
2021/08/06 03:35:06;;;;;;;7.47;0.50;;;;;;;;;;5002781;28;20523;-65
2021/08/06 03:37:32;;;;;;;7.60;0.50;;;;;;;;;;4993195;28;20434;-65
2021/08/06 03:39:58;;;;;;;7.60;0.50;;;;;;;;;;4992725;28;20501;-63
2021/08/06 03:42:24;;;;;;;6.90;0.50;;;;;;;;;;4993007;28;21004;-64
2021/08/06 03:44:50;;;;;;;7.70;0.50;;;;;;;;;;4992889;28;21151;-64
2021/08/06 03:47:16;;;;;;;7.87;0.50;;;;;;;;;;4993066;28;20453;-64
2021/08/06 03:49:43;;;;;;;7.80;0.50;;;;;;;;;;4992821;28;20425;-64
2021/08/06 03:52:09;;;;;;;7.83;0.50;;;;;;;;;;4992585;28;20424;-63
2021/08/06 03:54:35;;;;;;;7.87;0.50;;;;;;;;;;5052225;22;20555;-63
2021/08/06 03:57:01;;;;;;;7.93;0.40;;;;;;;;;;5052013;28;20422;-63
2021/08/06 03:59:27;;;;;;;7.90;0.50;;;;;;;;;;5051523;28;20643;-63
2021/08/06 04:01:53;;;;;;;7.90;0.50;;;;;;;;;;5051753;28;20473;-62
2021/08/06 04:04:19;;;;;;;7.70;0.50;;;;;;;;;;5051789;28;20838;-62
2021/08/06 04:06:45;;;;;;;7.63;0.50;;;;;;;;;;5033919;28;20465;-62
2021/08/06 04:09:11;;;;;;;8.43;0.50;;;;;;;;;;5051892;28;20411;-62
2021/08/06 04:11:37;;;;;;;8.00;0.50;;;;;;;;;;5051403;28;20419;-62
2021/08/06 04:14:03;;;;;;;7.80;0.50;;;;;;;;;;5051564;28;20485;-62
2021/08/06 04:16:29;;;;;;;7.67;0.50;;;;;;;;;;5051947;28;20411;-62
2021/08/06 04:18:55;;;;;;;7.67;0.50;;;;;;;;;;5051485;28;20794;-63
2021/08/06 04:21:21;;;;;;;7.80;0.50;;;;;;;;;;5051892;28;20385;-63
2021/08/06 04:23:47;;;;;;;7.77;0.50;;;;;;;;;;5051494;28;20453;-62
2021/08/06 04:26:13;;;;;;;7.70;0.50;;;;;;;;;;5051167;28;20921;-62
2021/08/06 04:28:40;;;;;;;7.70;0.50;;;;;;;;;;5051231;28;20425;-62
2021/08/06 04:31:06;;;;;;;7.70;0.50;;;;;;;;;;5051039;28;20397;-62
2021/08/06 04:33:32;;;;;;;8.57;0.50;;;;;;;;;;5051537;28;20474;-63
2021/08/06 04:35:59;;;;;;;7.53;0.50;;;;;;;;;;5051262;28;20461;-63
2021/08/06 04:38:25;;;;;;;7.50;0.50;;;;;;;;;;5051205;28;20539;-62
2021/08/06 04:40:51;;;;;;;7.70;0.50;;;;;;;;;;5047178;28;20451;-62
2021/08/06 04:43:20;;;;;;;7.50;0.50;;;;;;;;;;5031551;28;20672;-62
2021/08/06 04:45:46;;;;;;;7.63;0.50;;;;;;;;;;5046664;28;20461;-62
2021/08/06 04:48:12;;;;;;;7.80;0.50;;;;;;;;;;5050795;28;20425;-62
2021/08/06 04:50:38;;;;;;;7.07;0.50;;;;;;;;;;5050362;28;20454;-62
2021/08/06 04:53:04;;;;;;;7.05;0.50;;;;;;;;;;5051250;28;20473;-62
2021/08/06 04:55:30;;;;;;;7.20;0.50;;;;;;;;;;5045368;28;20181;-62
2021/08/06 04:57:56;;;;;;;7.13;0.50;;;;;;;;;;5050331;28;20438;-63
2021/08/06 05:00:22;;;;;;;7.20;0.50;;;;;;;;;;5051160;28;20414;-63
2021/08/06 05:02:48;;;;;;;7.20;0.50;;;;;;;;;;5050838;28;20461;-62
2021/08/06 05:05:14;;;;;;;7.20;0.50;;;;;;;;;;5054161;28;20964;-62
2021/08/06 05:07:40;;;;;;;7.13;0.50;;;;;;;;;;5055271;28;20632;-63
2021/08/06 05:10:06;;;;;;;7.07;0.50;;;;;;;;;;5055182;28;20482;-63
2021/08/06 05:12:32;;;;;;;7.13;0.50;;;;;;;;;;5055298;28;20393;-63
2021/08/06 05:14:58;;;;;;;7.23;0.50;;;;;;;;;;5054490;28;20448;-62
2021/08/06 05:17:24;;;;;;;7.43;0.50;;;;;;;;;;5055055;28;20469;-62
2021/08/06 05:19:50;;;;;;;7.37;0.50;;;;;;;;;;5044265;28;20928;-62
2021/08/06 05:22:16;;;;;;;7.30;0.50;;;;;;;;;;5046482;28;20423;-62
2021/08/06 05:24:43;;;;;;;7.27;0.50;;;;;;;;;;5054626;28;20462;-62
2021/08/06 05:27:09;;;;;;;7.07;0.50;;;;;;;;;;5054608;28;20434;-62
2021/08/06 05:29:35;;;;;;;6.30;0.50;;;;;;;;;;5054040;28;20449;-62
2021/08/06 05:32:01;;;;;;;3.60;0.40;;;;;;;;;;5036900;28;20423;-62
2021/08/06 05:34:27;;;;;;;3.70;0.40;;;;;;;;;;5052982;28;20445;-62
2021/08/06 05:36:53;;;;;;;3.70;0.40;;;;;;;;;;5054335;28;20391;-62
2021/08/06 05:39:19;;;;;;;3.70;0.40;;;;;;;;;;5036414;28;20416;-62
2021/08/06 05:41:45;;;;;;;3.70;0.50;;;;;;;;;;5054252;28;20424;-62
2021/08/06 05:44:11;;;;;;;4.00;0.40;;;;;;;;;;5052028;28;20498;-62
2021/08/06 05:46:37;;;;;;;4.00;0.40;;;;;;;;;;5054545;28;20398;-62
2021/08/06 05:49:03;;;;;;;3.97;0.40;;;;;;;;;;5054325;28;20403;-62
2021/08/06 05:51:29;;;;;;;4.00;0.40;;;;;;;;;;5054350;28;20490;-62
2021/08/06 05:53:55;;;;;;;4.20;0.40;;;;;;;;;;5051604;28;20455;-62
2021/08/06 05:56:21;;;;;;;4.20;0.40;;;;;;;;;;5033466;28;20411;-62
2021/08/06 05:58:47;;;;;;;4.20;0.40;;;;;;;;;;5033759;28;20956;-62
2021/08/06 06:01:13;;;;;;;4.35;0.40;;;;;;;;;;5016860;28;20481;-63
2021/08/06 06:03:38;;;;;;;4.40;0.40;;;;;;;;;;5034442;28;20198;-62
2021/08/06 06:06:04;;;;;;;4.40;0.40;;;;;;;;;;5034645;28;20408;-62
2021/08/06 06:08:31;;;;;;;4.10;0.40;;;;;;;;;;5034262;28;20489;-63
2021/08/06 06:10:58;;;;;;;4.07;0.40;;;;;;;;;;5034494;28;20493;-63
2021/08/06 06:13:24;;;;;;;4.07;0.40;;;;;;;;;;5034034;28;20435;-63
2021/08/06 06:15:50;;;;;;;4.00;0.40;;;;;;;;;;5034296;28;20171;-63
2021/08/06 06:18:16;;;;;;;4.10;0.40;;;;;;;;;;5034251;28;20739;-62
2021/08/06 06:20:42;;;;;;;4.10;0.40;;;;;;;;;;5014341;28;20464;-63
2021/08/06 06:23:08;;;;;;;3.80;0.40;;;;;;;;;;5033664;28;20432;-63
2021/08/06 06:25:34;;;;;;;3.80;0.40;;;;;;;;;;5033301;28;20468;-63
2021/08/06 06:28:03;;;;;;;3.80;0.40;;;;;;;;;;5033581;28;20499;-63
2021/08/06 06:30:30;;;;;;;3.80;0.40;;;;;;;;;;5033652;28;20414;-63
2021/08/06 06:32:56;;;;;;;3.70;0.40;;;;;;;;;;5033591;28;20563;-63
2021/08/06 06:35:23;;;;;;;3.65;0.40;;;;;;;;;;5033572;28;20779;-63
2021/08/06 06:37:49;;;;;;;3.70;0.40;;;;;;;;;;5032978;28;20209;-63
2021/08/06 06:40:15;;;;;;;3.30;0.40;;;;;;;;;;5033367;28;20407;-63
2021/08/06 06:42:42;;;;;;;3.60;0.30;;;;;;;;;;5033348;28;20434;-63
2021/08/06 06:45:08;;;;;;;3.57;0.40;;;;;;;;;;5033444;28;20240;-63
2021/08/06 06:47:41;;;;;;;3.43;0.30;;;;;;;;;;5032805;28;20783;-63
2021/08/06 06:50:09;;;;;;;3.57;0.40;;;;;;;;;;5033143;28;20757;-63
2021/08/06 06:52:35;;;;;;;3.33;0.40;;;;;;;;;;5033391;28;21018;-63
2021/08/06 06:55:01;;;;;;;3.37;0.40;;;;;;;;;;5033127;28;20826;-63
2021/08/06 06:57:28;;;;;;;3.30;0.40;;;;;;;;;;5033223;28;20408;-63
2021/08/06 06:59:55;;;;;;;3.03;0.40;;;;;;;;;;5032714;28;20411;-63
2021/08/06 07:02:22;;;;;;;3.00;0.40;;;;;;;;;;5033184;28;20428;-63
2021/08/06 07:04:48;;;;;;;3.03;0.40;;;;;;;;;;5032994;28;20482;-63
2021/08/06 07:07:14;;;;;;;3.20;0.30;;;;;;;;;;5033094;28;20899;-63
2021/08/06 07:09:40;;;;;;;3.30;0.40;;;;;;;;;;5039961;28;20418;-63
2021/08/06 07:12:06;;;;;;;3.40;0.40;;;;;;;;;;5052952;28;20384;-63
2021/08/06 07:14:33;;;;;;;4.77;0.40;;;;;;;;;;5052742;28;20517;-63
2021/08/06 07:16:59;;;;;;;0.50;0.30;;;;;;;;;;5052912;28;20810;-63
2021/08/06 07:19:25;;;;;;;0.40;0.30;;;;;;;;;;5052281;28;20737;-63
2021/08/06 07:21:51;;;;;;;0.40;0.30;;;;;;;;;;5052168;28;20418;-63
2021/08/06 07:24:18;;;;;;;0.40;0.30;;;;;;;;;;5034471;28;20498;-63
2021/08/06 07:26:44;;;;;;;0.40;0.30;;;;;;;;;;5051924;28;20410;-63
2021/08/06 07:29:10;;;;;;;0.40;0.30;;;;;;;;;;5052256;28;20807;-63
2021/08/06 07:31:36;;;;;;;0.40;0.30;;;;;;;;;;5052123;28;20421;-63
2021/08/06 07:34:02;;;;;;;0.40;0.30;;;;;;;;;;5052322;28;20408;-65
2021/08/06 07:36:28;;;;;;;0.40;0.30;;;;;;;;;;5052320;28;20413;-64
2021/08/06 07:38:54;;;;;;;0.80;0.30;;;;;;;;;;5052273;28;20418;-63
2021/08/06 07:41:20;;;;;;;0.70;0.30;;;;;;;;;;5052193;28;20393;-63
2021/08/06 07:43:46;;;;;;;0.70;0.30;;;;;;;;;;5051653;28;20458;-63
2021/08/06 07:46:12;;;;;;;0.60;0.30;;;;;;;;;;5052517;28;20400;-63
2021/08/06 07:48:38;;;;;;;0.60;0.30;;;;;;;;;;5052184;28;20403;-63
2021/08/06 07:51:04;;;;;;;0.60;0.30;;;;;;;;;;5051813;28;20770;-63
2021/08/06 07:53:30;;;;;;;0.60;0.30;;;;;;;;;;5051623;28;20433;-63
2021/08/06 07:55:56;;;;;;;0.60;0.30;;;;;;;;;;5051691;28;20468;-63
2021/08/06 07:58:22;;;;;;;0.50;0.30;;;;;;;;;;5051880;28;20449;-63
2021/08/06 08:00:48;;;;;;;0.40;0.30;;;;;;;;;;5051947;28;20424;-63
2021/08/06 08:03:14;;;;;;;0.40;0.30;;;;;;;;;;5051742;28;20477;-63
2021/08/06 08:05:40;;;;;;;0.50;0.30;;;;;;;;;;5051464;28;20377;-63
2021/08/06 08:08:06;;;;;;;0.50;0.30;;;;;;;;;;5051995;28;20476;-63
2021/08/06 08:10:32;;;;;;;0.90;0.30;;;;;;;;;;5051546;28;20751;-63
2021/08/06 08:12:59;;;;;;;0.90;0.30;;;;;;;;;;5051677;28;20423;-63
2021/08/06 08:15:25;;;;;;;1.00;0.30;;;;;;;;;;5051772;28;20844;-63
2021/08/06 08:17:51;;;;;;;0.90;0.30;;;;;;;;;;5051290;28;20415;-63
2021/08/06 08:20:17;;;;;;;0.90;0.30;;;;;;;;;;5051410;28;20396;-63
2021/08/06 08:22:43;;;;;;;0.90;0.30;;;;;;;;;;5051256;28;20415;-63
2021/08/06 08:25:10;;;;;;;0.80;0.30;;;;;;;;;;5051472;28;20472;-63
2021/08/06 08:27:36;;;;;;;1.00;0.30;;;;;;;;;;5051075;28;20426;-63
2021/08/06 08:30:03;;;;;;;1.10;0.30;;;;;;;;;;5051298;28;20900;-63
2021/08/06 08:32:29;;;;;;;1.10;0.30;;;;;;;;;;5051527;28;20399;-63
2021/08/06 08:34:55;;;;;;;1.10;0.30;;;;;;;;;;5051276;28;20401;-64
2021/08/06 08:37:21;;;;;;;1.17;0.30;;;;;;;;;;5050740;28;20432;-63
2021/08/06 08:39:47;;;;;;;1.20;0.40;;;;;;;;;;5050751;28;20407;-64
2021/08/06 08:42:15;;;;;;;3.20;0.40;;;;;;;;;;5051492;28;20520;-63
2021/08/06 08:44:41;;;;;;;1.43;0.30;;;;;;;;;;5051368;28;20440;-63
2021/08/06 08:47:08;;;;;;;1.50;0.30;;;;;;;;;;5050027;28;20377;-63
2021/08/06 08:49:35;;;;;;;1.60;0.30;;;;;;;;;;5050817;28;20833;-63
2021/08/06 08:52:01;;;;;;;1.70;0.30;;;;;;;;;;5051204;28;20453;-64
2021/08/06 08:54:28;;;;;;;1.90;0.30;;;;;;;;;;5051067;28;20879;-64
2021/08/06 08:56:54;;;;;;;2.43;0.40;;;;;;;;;;5050951;28;20381;-64
2021/08/06 08:59:20;;;;;;;2.60;0.40;;;;;;;;;;5050924;28;20753;-64
2021/08/06 09:01:46;;;;;;;2.90;0.40;;;;;;;;;;5050691;28;20457;-64
2021/08/06 09:04:19;;;;;;;2.70;0.30;;;;;;;;;;5051014;28;20457;-64
2021/08/06 09:06:46;;;;;;;2.80;0.30;;;;;;;;;;5051117;28;20415;-64
2021/08/06 09:09:14;;;;;;;3.00;0.30;;;;;;;;;;5050884;28;20409;-64
2021/08/06 09:11:41;;;;;;;3.00;0.30;;;;;;;;;;5048851;28;20437;-64
2021/08/06 09:14:24;;;;;;;3.30;0.30;;;;;;;;;;5030770;28;20953;-64
2021/08/06 09:17:10;;;;;;;3.50;0.30;;;;;;;;;;5031257;28;20423;-64
2021/08/06 09:19:36;;;;;;;5.30;0.30;;;;;;;;;;5030868;28;20390;-64
2021/08/06 09:22:15;;;;;;;5.57;0.30;;;;;;;;;;5031190;28;20383;-64
2021/08/06 09:24:59;;;;;;;5.90;0.30;;;;;;;;;;5030412;28;20430;-64
2021/08/06 09:27:25;;;;;;;0.20;0.20;;;;;;;;;;5030818;28;20792;-64
2021/08/06 09:29:51;;;;;;;0.20;0.20;;;;;;;;;;5030809;28;20486;-64
2021/08/06 09:32:17;;;;;;;0.20;0.20;;;;;;;;;;5031060;28;20447;-63
2021/08/06 09:34:44;;;;;;;0.20;0.20;;;;;;;;;;5030395;28;20506;-64
2021/08/06 09:37:19;;;;;;;0.20;0.20;;;;;;;;;;5013214;28;21124;-64
2021/08/06 09:39:49;;;;;;;0.20;0.20;;;;;;;;;;5030813;28;20472;-64
2021/08/06 09:42:21;;;;;;;0.20;0.20;;;;;;;;;;5030858;28;20412;-64
2021/08/06 09:44:58;;;;;;;0.40;0.20;;;;;;;;;;5030857;28;20473;-63
2021/08/06 09:47:25;;;;;;;0.30;0.20;;;;;;;;;;5030506;28;20390;-63
2021/08/06 09:49:52;;;;;;;0.30;0.20;;;;;;;;;;5033185;28;20439;-63
2021/08/06 09:52:26;;;;;;;0.20;0.20;;;;;;;;;;5033815;28;20415;-63
2021/08/06 09:54:52;;;;;;;0.20;0.20;;;;;;;;;;5056743;22;20908;-64
2021/08/06 09:57:19;;;;;;;0.30;0.30;;;;;;;;;;5032221;28;20418;-61
2021/08/06 09:59:50;;;;;;;0.20;0.20;;;;;;;;;;5033533;28;20407;-64
2021/08/06 10:02:17;;;;;;;0.20;0.20;;;;;;;;;;5034350;28;20400;-65
2021/08/06 10:04:44;;;;;;;0.20;0.20;;;;;;;;;;5034009;28;20491;-65
2021/08/06 10:07:11;;;;;;;0.20;0.20;;;;;;;;;;5034035;28;20477;-65
2021/08/06 10:09:37;;;;;;;0.20;0.20;;;;;;;;;;5033162;28;20408;-65
2021/08/06 10:12:04;;;;;;;0.20;0.20;;;;;;;;;;5034008;28;20950;-64
2021/08/06 10:14:31;;;;;;;0.20;0.20;;;;;;;;;;5034076;28;20436;-65
2021/08/06 10:16:57;;;;;;;0.80;0.20;;;;;;;;;;5033900;28;20417;-66
2021/08/06 10:19:23;;;;;;;3.90;0.20;;;;;;;;;;5033254;28;20414;-66
2021/08/06 10:21:50;;;;;;;4.10;0.30;;;;;;;;;;5034224;28;20893;-64
2021/08/06 10:24:17;;;;;;;4.00;0.30;;;;;;;;;;5033398;28;20944;-63
2021/08/06 10:26:47;;;;;;;4.07;0.30;;;;;;;;;;5033066;28;20421;-64
2021/08/06 10:29:13;;;;;;;4.40;0.30;;;;;;;;;;5033084;28;20490;-65
2021/08/06 10:31:39;;;;;;;2.40;0.30;;;;;;;;;;5032889;28;20967;-63
2021/08/06 10:34:09;;;;;;;0.20;0.20;;;;;;;;;;5033603;28;20444;-63
2021/08/06 10:37:01;;;;;;;0.20;0.20;;;;;;;;;;5033359;28;20474;-63
2021/08/06 10:39:48;;;;;;;0.20;0.20;;;;;;;;;;5030410;28;20431;-64
2021/08/06 10:42:28;;;;;;;0.20;0.20;;;;;;;;;;5032889;28;20508;-65
2021/08/06 10:44:59;;;;;;;0.20;0.20;;;;;;;;;;5015937;28;20437;-65
2021/08/06 10:47:43;;;;;;;0.20;0.20;;;;;;;;;;5033764;28;20407;-64
2021/08/06 10:50:14;;;;;;;0.20;0.20;;;;;;;;;;5033513;28;20383;-64
2021/08/06 10:52:40;;;;;;;0.20;0.20;;;;;;;;;;5033334;28;20403;-65
2021/08/06 10:55:19;;;;;;;0.20;0.20;;;;;;;;;;5033048;28;20531;-63
2021/08/06 10:57:46;;;;;;;0.20;0.20;;;;;;;;;;5033450;28;20756;-65
2021/08/06 11:00:31;;;;;;;0.20;0.20;;;;;;;;;;5032221;28;20453;-64
2021/08/06 11:02:57;;;;;;;0.20;0.20;;;;;;;;;;5033469;28;20818;-64
2021/08/06 11:05:34;;;;;;;0.20;0.20;;;;;;;;;;5030976;28;20438;-64
2021/08/06 11:08:03;;;;;;;0.20;0.20;;;;;;;;;;5033317;28;20382;-63
2021/08/06 11:10:49;;;;;;;0.20;0.20;;;;;;;;;;5032931;28;20899;-64
2021/08/06 11:13:34;;;;;;;0.30;0.30;;;;;;;;;;5033083;28;20415;-63
2021/08/06 11:16:05;;;;;;;0.20;0.20;;;;;;;;;;5032537;28;20408;-63
2021/08/06 11:18:31;;;;;;;0.30;0.30;;;;;;;;;;5032955;28;20928;-64
2021/08/06 11:20:59;;;;;;;0.30;0.30;;;;;;;;;;5032919;28;20869;-64
2021/08/06 11:23:25;;;;;;;0.20;0.20;;;;;;;;;;5032823;28;20923;-63
2021/08/06 11:25:51;;;;;;;0.30;0.30;;;;;;;;;;5032241;28;20423;-63
2021/08/06 11:28:25;;;;;;;0.20;0.20;;;;;;;;;;5031633;28;20416;-62
2021/08/06 11:30:51;;;;;;;0.20;0.20;;;;;;;;;;5032883;28;20797;-64
2021/08/06 11:33:17;;;;;;;0.20;0.20;;;;;;;;;;5032721;28;20450;-64
2021/08/06 11:35:44;;;;;;;0.20;0.20;;;;;;;;;;5033056;28;20494;-63
2021/08/06 11:38:11;;;;;;;0.20;0.20;;;;;;;;;;5032879;28;20419;-64
2021/08/06 11:40:42;;;;;;;0.20;0.20;;;;;;;;;;5032945;28;20413;-63
2021/08/06 11:43:19;;;;;;;0.20;0.20;;;;;;;;;;5032885;28;20908;-64
2021/08/06 11:45:46;;;;;;;0.20;0.20;;;;;;;;;;5032644;28;20432;-64
2021/08/06 11:48:12;;;;;;;0.20;0.20;;;;;;;;;;5032403;28;20457;-63
2021/08/06 11:50:55;;;;;;;0.20;0.20;;;;;;;;;;5032044;28;20370;-63
2021/08/06 11:53:25;;;;;;;0.20;0.20;;;;;;;;;;5032359;28;20371;-65
2021/08/06 11:55:53;;;;;;;0.20;0.20;;;;;;;;;;5030963;28;20419;-65
2021/08/06 11:58:32;;;;;;;0.20;0.20;;;;;;;;;;5031969;28;20403;-58
2021/08/06 12:00:58;;;;;;;0.20;0.20;;;;;;;;;;5031695;28;20422;-62
2021/08/06 12:03:24;;;;;;;0.20;0.20;;;;;;;;;;5032214;28;20411;-65
2021/08/06 12:05:51;;;;;;;0.30;0.30;;;;;;;;;;5032250;28;20917;-63
2021/08/06 12:08:23;;;;;;;0.30;0.30;;;;;;;;;;5031643;28;20392;-60
2021/08/06 12:10:54;;;;;;;0.20;0.20;;;;;;;;;;5031809;28;20470;-63
2021/08/06 12:13:23;;;;;;;2.00;0.37;;;;;;;;;;5031836;28;20411;-63
2021/08/06 12:15:58;;;;;;;0.40;0.30;;;;;;;;;;5031636;28;20407;-63
2021/08/06 12:18:24;;;;;;;0.40;0.30;;;;;;;;;;5031651;28;20442;-63
2021/08/06 12:20:53;;;;;;;0.40;0.30;;;;;;;;;;5031855;28;20855;-64
2021/08/06 12:23:19;;;;;;;0.40;0.30;;;;;;;;;;5031412;28;20994;-64
2021/08/06 12:26:04;;;;;;;0.40;0.30;;;;;;;;;;5031584;28;20509;-64
2021/08/06 12:28:30;;;;;;;0.40;0.20;;;;;;;;;;5031600;28;20462;-63
2021/08/06 12:31:06;;;;;;;0.30;0.20;;;;;;;;;;5031750;28;20597;-62
2021/08/06 12:33:32;;;;;;;0.40;0.20;;;;;;;;;;5030897;28;20406;-65
2021/08/06 12:36:28;;;;;;;0.40;0.30;;;;;;;;;;5031688;28;20906;-66
2021/08/06 12:39:04;;;;;;;0.40;0.20;;;;;;;;;;5018685;28;20419;-65
2021/08/06 12:41:31;;;;;;;0.40;0.20;;;;;;;;;;5031285;28;20410;-62
2021/08/06 12:44:16;;;;;;;0.40;0.20;;;;;;;;;;5031173;28;20462;-64
2021/08/06 12:46:42;;;;;;;0.60;0.30;;;;;;;;;;5031273;28;20437;-65
2021/08/06 12:49:10;;;;;;;0.70;0.30;;;;;;;;;;5030909;28;20406;-65
2021/08/06 12:51:37;;;;;;;0.70;0.30;;;;;;;;;;5031376;28;20402;-63
2021/08/06 12:54:03;;;;;;;0.50;0.20;;;;;;;;;;5031109;28;20483;-66
2021/08/06 12:56:29;;;;;;;0.50;0.30;;;;;;;;;;5030872;28;20443;-64
2021/08/06 12:59:14;;;;;;;0.50;0.30;;;;;;;;;;5031079;28;20413;-64
2021/08/06 13:01:40;;;;;;;0.60;0.30;;;;;;;;;;5031079;28;20489;-64
2021/08/06 13:04:06;;;;;;;0.50;0.30;;;;;;;;;;5029614;28;20498;-63
2021/08/06 13:06:46;;;;;;;0.50;0.30;;;;;;;;;;5030826;28;20435;-63
2021/08/06 13:09:12;;;;;;;0.40;0.30;;;;;;;;;;5030830;28;20410;-63
2021/08/06 13:11:38;;;;;;;0.50;0.30;;;;;;;;;;5031126;28;20420;-63
2021/08/06 13:14:06;;;;;;;0.50;0.20;;;;;;;;;;5030723;28;20443;-63
2021/08/06 13:16:32;;;;;;;0.50;0.20;;;;;;;;;;5031131;28;20411;-64
2021/08/06 13:18:58;;;;;;;0.40;0.30;;;;;;;;;;5030333;28;20463;-62
2021/08/06 13:21:24;;;;;;;0.50;0.30;;;;;;;;;;5030999;28;20404;-62
2021/08/06 13:23:50;;;;;;;0.40;0.20;;;;;;;;;;5032069;28;20542;-65
2021/08/06 13:26:16;;;;;;;0.50;0.30;;;;;;;;;;5035091;28;20378;-64
2021/08/06 13:28:42;;;;;;;0.50;0.20;;;;;;;;;;5034552;28;20439;-63
2021/08/06 13:31:09;;;;;;;0.30;0.20;;;;;;;;;;5036191;28;20814;-62
2021/08/06 13:33:35;;;;;;;2.53;0.30;;;;;;;;;;5035379;28;20414;-64
2021/08/06 13:36:01;;;;;;;2.53;0.30;;;;;;;;;;5035001;28;20407;-65
2021/08/06 13:38:27;;;;;;;2.70;0.30;;;;;;;;;;5034982;28;20412;-63
2021/08/06 13:40:53;;;;;;;2.83;0.30;;;;;;;;;;5034866;28;20407;-64
2021/08/06 13:43:19;;;;;;;2.80;0.30;;;;;;;;;;5034925;28;20403;-65
2021/08/06 13:45:46;;;;;;;2.70;0.30;;;;;;;;;;5035683;28;20464;-63
2021/08/06 13:48:14;;;;;;;2.70;0.30;;;;;;;;;;5039464;28;20432;-64
2021/08/06 13:50:40;;;;;;;2.70;0.30;;;;;;;;;;5034594;28;20465;-63
2021/08/06 13:53:07;;;;;;;2.30;0.30;;;;;;;;;;5034549;28;20391;-62
2021/08/06 13:55:33;;;;;;;2.30;0.30;;;;;;;;;;5034107;28;20526;-65
2021/08/06 13:57:59;;;;;;;2.00;0.30;;;;;;;;;;5035098;28;20419;-65
2021/08/06 14:00:25;;;;;;;2.10;0.30;;;;;;;;;;5034591;28;20517;-65
2021/08/06 14:02:51;;;;;;;2.70;0.30;;;;;;;;;;5034035;28;21130;-64
2021/08/06 14:05:17;;;;;;;2.60;0.30;;;;;;;;;;5034229;28;20429;-64
2021/08/06 14:07:43;;;;;;;2.60;0.30;;;;;;;;;;5034389;28;20428;-65
2021/08/06 14:10:09;;;;;;;2.70;0.30;;;;;;;;;;5033077;28;20434;-66
2021/08/06 14:12:35;;;;;;;2.70;0.30;;;;;;;;;;5034256;28;20502;-64
2021/08/06 14:15:01;;;;;;;2.67;0.30;;;;;;;;;;5033879;28;20450;-65
2021/08/06 14:17:27;;;;;;;2.63;0.30;;;;;;;;;;5033821;28;20965;-63
2021/08/06 14:19:53;;;;;;;2.67;0.30;;;;;;;;;;5034026;28;20411;-64
2021/08/06 14:22:21;;;;;;;2.87;0.30;;;;;;;;;;5033503;28;20783;-65
2021/08/06 14:24:47;;;;;;;3.20;0.30;;;;;;;;;;5033462;28;20425;-62
2021/08/06 14:27:13;;;;;;;3.13;0.30;;;;;;;;;;5033633;28;20412;-65
2021/08/06 14:29:39;;;;;;;3.13;0.30;;;;;;;;;;5033510;28;20382;-64
2021/08/06 14:32:06;;;;;;;3.00;0.30;;;;;;;;;;5033672;28;20465;-66
2021/08/06 14:34:32;;;;;;;6.73;0.40;;;;;;;;;;5032971;28;20443;-65
2021/08/06 14:36:58;;;;;;;0.20;0.20;;;;;;;;;;5032125;28;20408;-65
2021/08/06 14:39:24;;;;;;;0.20;0.20;;;;;;;;;;5033173;28;20797;-64
2021/08/06 14:41:50;;;;;;;0.20;0.20;;;;;;;;;;5033541;28;20418;-64
2021/08/06 14:44:16;;;;;;;0.20;0.20;;;;;;;;;;5033196;28;20454;-63
2021/08/06 14:46:42;;;;;;;0.20;0.20;;;;;;;;;;5033361;28;20411;-65